createdAt,value
2018-02-22T00:02:19.036Z,14.82
2018-02-22T00:04:48.123Z,12.93
2018-02-22T00:07:17.213Z,13.55
2018-02-22T00:09:47.066Z,14.05
2018-02-22T00:12:16.147Z,14.18
2018-02-22T00:14:45.290Z,14.00
2018-02-22T00:17:14.377Z,13.50
2018-02-22T00:19:44.278Z,12.40
2018-02-22T00:22:19.353Z,13.05
2018-02-22T00:24:49.253Z,13.07
2018-02-22T00:27:18.339Z,13.50
2018-02-22T00:29:47.421Z,13.20
2018-02-22T00:32:16.558Z,13.48
2018-02-22T00:34:45.657Z,12.75
2018-02-22T00:37:14.754Z,14.43
2018-02-22T00:39:44.720Z,13.70
2018-02-22T00:42:13.891Z,14.80
2018-02-22T00:44:42.982Z,12.93
2018-02-22T00:47:12.826Z,15.20
2018-02-22T00:49:42.673Z,14.10
2018-02-22T00:52:11.805Z,13.75
2018-02-22T00:54:40.886Z,13.48
2018-02-22T00:57:09.970Z,13.35
2018-02-22T00:59:39.857Z,14.45
2018-02-22T01:02:08.949Z,14.15
2018-02-22T01:04:38.041Z,12.82
2018-02-22T01:07:07.158Z,13.60
2018-02-22T01:09:36.252Z,14.10
2018-02-22T01:12:05.454Z,13.98
2018-02-22T01:14:35.297Z,13.32
2018-02-22T01:17:05.161Z,13.38
2018-02-22T01:19:34.306Z,14.65
2018-02-22T01:22:03.387Z,13.02
2018-02-22T01:24:32.465Z,13.02
2018-02-22T01:27:01.586Z,12.80
2018-02-22T01:29:30.713Z,13.05
2018-02-22T01:31:59.785Z,13.02
2018-02-22T01:34:29.649Z,15.27
2018-02-22T01:36:58.741Z,14.10
2018-02-22T01:39:27.830Z,15.27
2018-02-22T01:41:57.878Z,13.68
2018-02-22T01:44:27.017Z,14.52
2018-02-22T01:46:56.109Z,14.07
2018-02-22T01:49:25.193Z,14.48
2018-02-22T01:51:55.079Z,14.60
2018-02-22T01:54:24.169Z,15.43
2018-02-22T01:56:53.271Z,14.13
2018-02-22T01:59:22.375Z,14.48
2018-02-22T02:01:51.509Z,13.02
2018-02-22T02:04:20.597Z,14.48
2018-02-22T02:06:49.729Z,16.05
2018-02-22T02:09:18.846Z,15.40
2018-02-22T02:11:47.934Z,15.75
2018-02-22T02:14:17.032Z,15.20
2018-02-22T02:16:46.126Z,15.45
2018-02-22T02:19:16.090Z,14.10
2018-02-22T02:21:45.177Z,15.40
2018-02-22T02:24:14.308Z,13.70
2018-02-22T02:26:43.390Z,14.55
2018-02-22T02:29:12.466Z,15.80
2018-02-22T02:31:41.609Z,14.73
2018-02-22T02:34:11.480Z,15.65
2018-02-22T02:36:40.582Z,14.35
2018-02-22T02:39:09.681Z,14.98
2018-02-22T02:41:38.781Z,14.45
2018-02-22T02:44:07.877Z,12.93
2018-02-22T02:46:37.721Z,14.20
2018-02-22T02:49:06.824Z,15.48
2018-02-22T02:51:36.062Z,14.70
2018-02-22T02:54:05.141Z,13.38
2018-02-22T02:56:34.250Z,14.00
2018-02-22T02:59:03.380Z,15.68
2018-02-22T03:01:32.502Z,16.45
2018-02-22T03:04:01.617Z,14.93
2018-02-22T03:06:30.745Z,14.48
2018-02-22T03:08:59.826Z,15.20
2018-02-22T03:11:28.909Z,15.32
2018-02-22T03:13:58.795Z,15.48
2018-02-22T03:16:27.933Z,15.18
2018-02-22T03:18:57.777Z,15.02
2018-02-22T03:21:26.878Z,14.63
2018-02-22T03:23:56.842Z,13.68
2018-02-22T03:26:26.070Z,16.05
2018-02-22T03:28:55.176Z,14.87
2018-02-22T03:31:24.275Z,15.23
2018-02-22T03:33:53.374Z,15.50
2018-02-22T03:36:22.474Z,14.40
2018-02-22T03:38:51.581Z,15.57
2018-02-22T03:41:21.498Z,15.57
2018-02-22T03:43:51.474Z,14.93
2018-02-22T03:46:20.711Z,15.63
2018-02-22T03:48:49.806Z,15.38
2018-02-22T03:51:19.001Z,16.27
2018-02-22T03:53:48.115Z,16.25
2018-02-22T03:56:17.198Z,16.08
2018-02-22T03:58:46.281Z,15.25
2018-02-22T04:01:15.368Z,15.82
2018-02-22T04:03:44.529Z,16.87
2018-02-22T04:06:13.614Z,16.92
2018-02-22T04:08:42.774Z,17.60
2018-02-22T04:11:11.853Z,16.60
2018-02-22T04:13:41.770Z,16.75
2018-02-22T04:16:11.621Z,15.05
2018-02-22T04:18:40.710Z,15.60
2018-02-22T04:21:10.549Z,16.60
2018-02-22T04:23:40.485Z,15.48
2018-02-22T04:26:10.339Z,18.77
2018-02-22T04:28:39.426Z,16.80
2018-02-22T04:31:08.533Z,15.25
2018-02-22T04:33:38.390Z,16.23
2018-02-22T04:36:07.551Z,15.40
2018-02-22T04:38:37.406Z,16.60
2018-02-22T04:41:06.490Z,15.60
2018-02-22T04:43:36.338Z,16.17
2018-02-22T04:46:06.238Z,15.77
2018-02-22T04:48:35.329Z,14.95
2018-02-22T04:51:04.450Z,16.48
2018-02-22T04:53:33.538Z,16.52
2018-02-22T04:56:02.638Z,17.25
2018-02-22T04:58:31.853Z,16.40
2018-02-22T05:01:00.945Z,15.90
2018-02-22T05:03:30.027Z,16.02
2018-02-22T05:05:59.888Z,15.95
2018-02-22T05:08:28.973Z,16.98
2018-02-22T05:10:58.821Z,17.67
2018-02-22T05:13:27.922Z,16.65
2018-02-22T05:15:57.046Z,16.35
2018-02-22T05:18:26.143Z,16.00
2018-02-22T05:20:55.237Z,17.23
2018-02-22T05:23:24.334Z,16.20
2018-02-22T05:25:54.199Z,17.87
2018-02-22T05:28:23.297Z,16.35
2018-02-22T05:30:52.529Z,18.00
2018-02-22T05:33:21.615Z,18.05
2018-02-22T05:35:50.698Z,18.27
2018-02-22T05:38:19.865Z,19.45
2018-02-22T05:40:49.030Z,18.15
2018-02-22T05:43:18.884Z,18.37
2018-02-22T05:45:47.968Z,19.00
2018-02-22T05:48:17.849Z,18.55
2018-02-22T05:50:46.934Z,19.05
2018-02-22T05:53:16.013Z,19.27
2018-02-22T05:55:45.871Z,18.52
2018-02-22T05:58:14.964Z,21.15
2018-02-22T06:00:44.926Z,20.77
2018-02-22T06:03:14.030Z,19.12
2018-02-22T06:05:43.245Z,21.52
2018-02-22T06:08:12.330Z,20.88
2018-02-22T06:10:41.429Z,20.33
2018-02-22T06:13:11.290Z,20.00
2018-02-22T06:15:40.390Z,20.12
2018-02-22T06:18:09.478Z,20.35
2018-02-22T06:20:39.402Z,19.62
2018-02-22T06:23:09.250Z,18.77
2018-02-22T06:25:38.329Z,21.50
2018-02-22T06:28:07.425Z,22.52
2018-02-22T06:30:36.530Z,21.35
2018-02-22T06:33:05.630Z,20.42
2018-02-22T06:35:34.712Z,21.87
2018-02-22T06:38:03.798Z,19.60
2018-02-22T06:40:33.732Z,20.42
2018-02-22T06:43:02.818Z,20.23
2018-02-22T06:45:31.916Z,20.73
2018-02-22T06:48:01.026Z,21.35
2018-02-22T06:50:30.337Z,20.80
2018-02-22T06:52:59.421Z,21.58
2018-02-22T06:55:28.513Z,20.60
2018-02-22T06:57:57.645Z,21.52
2018-02-22T07:00:26.790Z,21.55
2018-02-22T07:02:55.873Z,20.37
2018-02-22T07:05:24.982Z,22.05
2018-02-22T07:07:54.085Z,21.02
2018-02-22T07:10:23.227Z,24.85
2018-02-22T07:12:52.803Z,26.60
2018-02-22T07:15:21.899Z,22.80
2018-02-22T07:17:51.753Z,20.45
2018-02-22T07:20:20.842Z,19.58
2018-02-22T07:22:49.961Z,19.95
2018-02-22T07:25:19.043Z,21.35
2018-02-22T07:27:48.967Z,21.33
2018-02-22T07:30:18.854Z,21.27
2018-02-22T07:32:47.954Z,20.37
2018-02-22T07:35:17.072Z,20.50
2018-02-22T07:37:46.181Z,22.60
2018-02-22T07:40:15.282Z,17.70
2018-02-22T07:42:44.402Z,20.37
2018-02-22T07:45:13.498Z,19.02
2018-02-22T07:47:42.591Z,18.90
2018-02-22T07:50:11.686Z,21.25
2018-02-22T07:52:41.549Z,19.10
2018-02-22T07:55:10.721Z,20.50
2018-02-22T07:57:40.602Z,19.30
2018-02-22T08:00:09.755Z,21.02
2018-02-22T08:02:38.818Z,20.70
2018-02-22T08:05:07.958Z,19.15
2018-02-22T08:07:37.062Z,20.08
2018-02-22T08:10:06.154Z,19.50
2018-02-22T08:12:35.261Z,19.90
2018-02-22T08:15:04.362Z,20.42
2018-02-22T08:17:33.458Z,19.60
2018-02-22T08:20:02.630Z,17.17
2018-02-22T08:22:31.734Z,18.65
2018-02-22T08:25:00.846Z,20.30
2018-02-22T08:27:29.929Z,18.65
2018-02-22T08:29:59.060Z,17.70
2018-02-22T08:32:28.177Z,18.75
2018-02-22T08:34:57.518Z,18.35
2018-02-22T08:37:27.362Z,19.12
2018-02-22T08:39:56.551Z,19.08
2018-02-22T08:42:26.392Z,18.50
2018-02-22T08:44:56.257Z,17.87
2018-02-22T08:47:25.332Z,16.35
2018-02-22T08:49:55.166Z,17.40
2018-02-22T08:52:24.248Z,19.85
2018-02-22T08:54:54.915Z,18.45
2018-02-22T08:57:24.746Z,18.10
2018-02-22T08:59:54.593Z,16.52
2018-02-22T09:02:23.662Z,16.30
2018-02-22T09:04:52.738Z,15.05
2018-02-22T09:07:22.014Z,14.98
2018-02-22T09:09:51.081Z,15.30
2018-02-22T09:12:20.218Z,15.35
2018-02-22T09:14:50.081Z,14.60
2018-02-22T09:17:19.221Z,13.52
2018-02-22T09:19:48.298Z,13.20
2018-02-22T09:22:17.377Z,12.93
2018-02-22T09:24:47.246Z,12.98
2018-02-22T09:27:16.318Z,13.65
2018-02-22T09:29:45.409Z,13.30
2018-02-22T09:32:14.474Z,11.93
2018-02-22T09:34:43.543Z,10.95
2018-02-22T09:37:13.426Z,12.00
2018-02-22T09:39:42.494Z,13.27
2018-02-22T09:42:11.571Z,13.20
2018-02-22T09:44:40.733Z,12.35
2018-02-22T09:47:09.857Z,11.80
2018-02-22T09:49:38.945Z,10.65
2018-02-22T09:52:08.014Z,12.00
2018-02-22T09:54:37.091Z,12.15
2018-02-22T09:57:06.173Z,12.73
2018-02-22T09:59:35.422Z,12.40
2018-02-22T10:02:04.494Z,11.70
2018-02-22T10:04:33.717Z,11.30
2018-02-22T10:07:02.806Z,11.07
2018-02-22T10:09:31.913Z,11.88
2018-02-22T10:12:01.746Z,11.48
2018-02-22T10:14:30.810Z,11.32
2018-02-22T10:16:59.909Z,12.60
2018-02-22T10:19:29.001Z,12.02
2018-02-22T10:21:58.128Z,10.50
2018-02-22T10:24:27.267Z,9.38
2018-02-22T10:26:56.332Z,9.82
2018-02-22T10:29:25.426Z,9.98
2018-02-22T10:31:54.495Z,9.70
2018-02-22T10:34:23.558Z,9.35
2018-02-22T10:36:52.694Z,8.98
2018-02-22T10:39:21.766Z,8.75
2018-02-22T10:41:50.835Z,8.77
2018-02-22T10:44:20.666Z,8.98
2018-02-22T10:46:49.763Z,9.02
2018-02-22T10:49:18.899Z,7.90
2018-02-22T10:51:47.981Z,8.80
2018-02-22T10:54:17.045Z,7.97
2018-02-22T10:56:46.218Z,9.45
2018-02-22T10:59:16.047Z,7.80
2018-02-22T11:01:51.558Z,7.97
2018-02-22T11:04:20.625Z,9.15
2018-02-22T11:06:50.520Z,9.40
2018-02-22T11:09:19.641Z,8.48
2018-02-22T11:11:48.685Z,10.00
2018-02-22T11:14:17.760Z,10.45
2018-02-22T11:16:46.841Z,10.00
2018-02-22T11:19:15.918Z,11.05
2018-02-22T11:21:45.026Z,10.98
2018-02-22T11:24:14.265Z,10.90
2018-02-22T11:26:43.410Z,7.25
2018-02-22T11:29:12.471Z,7.20
2018-02-22T11:31:41.529Z,7.50
2018-02-22T11:34:10.598Z,7.87
2018-02-22T11:36:39.674Z,7.62
2018-02-22T11:39:09.518Z,7.03
2018-02-22T11:41:39.350Z,6.32
2018-02-22T11:44:08.504Z,7.47
2018-02-22T11:46:37.565Z,6.65
2018-02-22T11:49:07.422Z,6.65
2018-02-22T11:51:36.485Z,5.55
2018-02-22T11:54:05.565Z,6.80
2018-02-22T11:56:34.669Z,6.93
2018-02-22T11:59:03.725Z,6.20
2018-02-22T12:01:33.554Z,7.15
2018-02-22T12:04:03.394Z,6.95
2018-02-22T12:06:32.457Z,7.00
2018-02-22T12:09:01.534Z,7.75
2018-02-22T12:11:30.626Z,7.25
2018-02-22T12:13:59.701Z,6.95
2018-02-22T12:16:28.769Z,6.60
2018-02-22T12:18:57.894Z,7.12
2018-02-22T12:21:26.961Z,5.60
2018-02-22T12:23:56.014Z,6.65
2018-02-22T12:26:25.083Z,6.95
2018-02-22T12:28:54.170Z,7.07
2018-02-22T12:31:24.021Z,7.10
2018-02-22T12:33:53.124Z,5.72
2018-02-22T12:36:23.046Z,6.50
2018-02-22T12:38:52.873Z,4.80
2018-02-22T12:41:22.701Z,5.45
2018-02-22T12:43:52.526Z,5.82
2018-02-22T12:46:22.377Z,5.80
2018-02-22T12:48:51.444Z,5.47
2018-02-22T12:51:20.500Z,5.70
2018-02-22T12:53:49.562Z,5.97
2018-02-22T12:56:18.711Z,7.45
2018-02-22T12:58:48.518Z,7.12
2018-02-22T13:01:18.350Z,7.18
2018-02-22T13:03:48.209Z,6.80
2018-02-22T13:06:17.314Z,7.95
2018-02-22T13:08:46.384Z,8.60
2018-02-22T13:11:16.213Z,7.43
2018-02-22T13:13:46.054Z,8.32
2018-02-22T13:16:15.909Z,9.27
2018-02-22T13:18:44.995Z,7.90
2018-02-22T13:21:14.105Z,7.97
2018-02-22T13:23:43.193Z,9.70
2018-02-22T13:26:13.028Z,8.68
2018-02-22T13:28:42.938Z,10.18
2018-02-22T13:31:12.051Z,10.43
2018-02-22T13:33:59.204Z,10.48
2018-02-22T13:36:29.090Z,10.45
2018-02-22T13:39:07.802Z,10.63
2018-02-22T13:41:36.967Z,10.20
2018-02-22T13:44:23.972Z,11.05
2018-02-22T13:46:53.066Z,7.60
2018-02-22T13:49:40.121Z,7.70
2018-02-22T13:52:09.190Z,16.17
2018-02-22T13:54:38.414Z,8.45
2018-02-22T13:57:14.965Z,8.75
2018-02-22T13:59:47.070Z,10.23
2018-02-22T14:02:31.962Z,7.43
2018-02-22T14:05:01.049Z,7.75
2018-02-22T14:07:30.897Z,7.47
2018-02-22T14:10:00.044Z,7.20
2018-02-22T14:12:29.136Z,5.47
2018-02-22T14:14:58.209Z,7.00
2018-02-22T14:17:28.058Z,6.40
2018-02-22T14:19:57.130Z,6.15
2018-02-22T14:22:26.192Z,5.50
2018-02-22T14:24:55.253Z,5.45
2018-02-22T14:27:25.089Z,5.43
2018-02-22T14:29:54.925Z,6.28
2018-02-22T14:32:23.988Z,6.37
2018-02-22T14:34:53.122Z,6.93
2018-02-22T14:37:22.950Z,6.80
2018-02-22T14:39:52.024Z,6.22
2018-02-22T14:42:21.138Z,6.50
2018-02-22T14:44:50.205Z,5.10
2018-02-22T14:47:19.318Z,5.78
2018-02-22T14:49:48.379Z,5.28
2018-02-22T14:52:17.486Z,6.53
2018-02-22T14:54:46.573Z,6.00
2018-02-22T14:57:15.635Z,5.87
2018-02-22T14:59:45.494Z,5.85
2018-02-22T15:02:20.138Z,5.20
2018-02-22T15:04:49.266Z,5.22
2018-02-22T15:07:18.362Z,5.55
2018-02-22T15:09:47.462Z,6.57
2018-02-22T15:12:16.522Z,6.30
2018-02-22T15:14:45.590Z,6.80
2018-02-22T15:17:15.039Z,6.18
2018-02-22T15:19:44.106Z,6.25
2018-02-22T15:22:13.171Z,6.72
2018-02-22T15:24:42.229Z,7.05
2018-02-22T15:27:11.330Z,6.32
2018-02-22T15:29:40.670Z,9.95
2018-02-22T15:32:09.797Z,10.00
2018-02-22T15:34:38.921Z,10.95
2018-02-22T15:37:07.997Z,8.98
2018-02-22T15:39:37.094Z,7.47
2018-02-22T15:42:06.153Z,7.57
2018-02-22T15:44:36.047Z,7.70
2018-02-22T15:47:05.111Z,6.43
2018-02-22T15:49:35.049Z,8.23
2018-02-22T15:52:04.877Z,7.75
2018-02-22T15:54:34.710Z,8.30
2018-02-22T15:57:04.550Z,8.88
2018-02-22T15:59:33.620Z,7.80
2018-02-22T16:02:02.682Z,7.40
2018-02-22T16:04:31.751Z,8.50
2018-02-22T16:07:01.638Z,8.43
2018-02-22T16:09:30.705Z,8.13
2018-02-22T16:11:59.777Z,8.50
2018-02-22T16:14:28.849Z,8.05
2018-02-22T16:16:57.914Z,8.40
2018-02-22T16:19:26.998Z,9.65
2018-02-22T16:21:56.194Z,13.95
2018-02-22T16:24:25.313Z,8.20
2018-02-22T16:26:54.371Z,7.05
2018-02-22T16:29:24.238Z,6.82
2018-02-22T16:31:53.298Z,6.75
2018-02-22T16:34:22.538Z,6.45
2018-02-22T16:36:51.599Z,6.87
2018-02-22T16:39:20.689Z,9.10
2018-02-22T16:41:50.522Z,8.30
2018-02-22T16:44:20.354Z,7.78
2018-02-22T16:46:49.441Z,8.80
2018-02-22T16:49:18.505Z,9.40
2018-02-22T16:51:48.378Z,8.75
2018-02-22T16:54:17.466Z,10.32
2018-02-22T16:56:46.539Z,8.35
2018-02-22T16:59:15.653Z,8.50
2018-02-22T17:01:44.741Z,8.38
2018-02-22T17:04:13.813Z,8.38
2018-02-22T17:06:42.878Z,7.45
2018-02-22T17:09:11.962Z,8.13
2018-02-22T17:11:41.805Z,6.90
2018-02-22T17:14:10.876Z,9.25
2018-02-22T17:16:40.057Z,9.07
2018-02-22T17:19:09.925Z,8.35
2018-02-22T17:21:38.989Z,6.25
2018-02-22T17:24:08.825Z,6.47
2018-02-22T17:26:44.423Z,5.97
2018-02-22T17:29:19.118Z,7.22
2018-02-22T17:31:55.462Z,7.70
2018-02-22T17:34:24.518Z,9.73
2018-02-22T17:36:54.657Z,8.30
2018-02-22T17:39:29.954Z,7.55
2018-02-22T17:41:59.057Z,7.70
2018-02-22T17:44:28.157Z,7.60
2018-02-22T17:46:57.222Z,7.50
2018-02-22T17:49:26.713Z,7.37
2018-02-22T17:51:55.774Z,6.87
2018-02-22T17:54:25.682Z,6.45
2018-02-22T17:56:54.866Z,6.72
2018-02-22T17:59:23.951Z,8.70
2018-02-22T18:01:53.042Z,9.82
2018-02-22T18:04:22.129Z,7.30
2018-02-22T18:06:51.983Z,6.20
2018-02-22T18:09:21.050Z,7.20
2018-02-22T18:11:50.145Z,8.55
2018-02-22T18:14:19.473Z,12.00
2018-02-22T18:16:48.657Z,24.10
2018-02-22T18:19:17.760Z,8.27
2018-02-22T18:21:46.965Z,8.38
2018-02-22T18:24:16.058Z,6.80
2018-02-22T18:26:45.121Z,6.43
2018-02-22T18:29:14.174Z,6.55
2018-02-22T18:31:44.006Z,7.75
2018-02-22T18:34:13.074Z,10.35
2018-02-22T18:36:42.151Z,9.05
2018-02-22T18:39:17.386Z,9.80
2018-02-22T18:41:51.925Z,10.85
2018-02-22T18:44:26.577Z,8.70
2018-02-22T18:46:55.757Z,8.00
2018-02-22T18:49:24.872Z,7.47
2018-02-22T18:51:54.713Z,6.78
2018-02-22T18:54:23.946Z,6.85
2018-02-22T18:56:53.037Z,7.07
2018-02-22T18:59:22.106Z,8.60
2018-02-22T19:01:51.212Z,10.82
2018-02-22T19:04:20.278Z,7.30
2018-02-22T19:06:49.378Z,6.75
2018-02-22T19:09:18.438Z,6.22
2018-02-22T19:11:47.558Z,6.35
2018-02-22T19:14:16.633Z,7.57
2018-02-22T19:16:45.705Z,6.25
2018-02-22T19:19:15.758Z,8.05
2018-02-22T19:21:44.838Z,6.72
2018-02-22T19:24:14.681Z,7.18
2018-02-22T19:26:43.782Z,6.80
2018-02-22T19:29:13.610Z,6.85
2018-02-22T19:31:43.450Z,6.28
2018-02-22T19:34:12.530Z,7.87
2018-02-22T19:36:41.590Z,7.20
2018-02-22T19:39:10.720Z,6.18
2018-02-22T19:41:39.783Z,8.00
2018-02-22T19:44:08.845Z,7.95
2018-02-22T19:46:37.977Z,7.80
2018-02-22T19:49:07.050Z,7.70
2018-02-22T19:51:36.121Z,8.05
2018-02-22T19:54:05.946Z,8.00
2018-02-22T19:56:35.854Z,7.22
2018-02-22T19:59:04.934Z,8.00
2018-02-22T20:01:34.011Z,8.32
2018-02-22T20:04:03.086Z,9.13
2018-02-22T20:06:32.180Z,10.07
2018-02-22T20:09:01.278Z,9.77
2018-02-22T20:11:30.341Z,7.93
2018-02-22T20:13:59.477Z,8.40
2018-02-22T20:16:28.553Z,7.65
2018-02-22T20:18:58.440Z,8.45
2018-02-22T20:21:27.554Z,8.00
2018-02-22T20:23:56.625Z,8.05
2018-02-22T20:26:25.749Z,7.57
2018-02-22T20:28:54.841Z,7.53
2018-02-22T20:31:24.066Z,7.60
2018-02-22T20:33:53.129Z,9.27
2018-02-22T20:36:22.971Z,9.80
2018-02-22T20:38:52.870Z,8.52
2018-02-22T20:41:21.929Z,8.80
2018-02-22T20:43:50.997Z,8.93
2018-02-22T20:46:20.066Z,11.50
2018-02-22T20:48:49.139Z,10.68
2018-02-22T20:51:33.897Z,10.57
2018-02-22T20:54:03.009Z,10.10
2018-02-22T20:56:32.894Z,10.50
2018-02-22T20:59:01.973Z,10.82
2018-02-22T21:01:31.041Z,10.57
2018-02-22T21:04:00.134Z,10.45
2018-02-22T21:06:29.218Z,11.80
2018-02-22T21:08:58.290Z,13.13
2018-02-22T21:11:27.378Z,12.43
2018-02-22T21:13:56.494Z,12.50
2018-02-22T21:16:27.074Z,10.60
2018-02-22T21:18:56.906Z,10.95
2018-02-22T21:21:26.037Z,11.95
2018-02-22T21:23:57.677Z,12.90
2018-02-22T21:26:27.696Z,11.05
2018-02-22T21:28:57.578Z,11.07
2018-02-22T21:31:26.663Z,10.70
2018-02-22T21:33:55.765Z,12.35
2018-02-22T21:36:24.833Z,21.02
2018-02-22T21:38:53.967Z,12.57
2018-02-22T21:41:23.826Z,12.07
2018-02-22T21:43:52.989Z,11.05
2018-02-22T21:46:22.070Z,11.77
2018-02-22T21:48:51.185Z,11.07
2018-02-22T21:51:20.266Z,10.93
2018-02-22T21:53:49.333Z,17.17
2018-02-22T21:56:18.415Z,39.63
2018-02-22T21:58:47.481Z,26.75
2018-02-22T22:01:17.442Z,31.40
2018-02-22T22:03:46.519Z,13.45
2018-02-22T22:06:16.362Z,20.70
2018-02-22T22:08:45.436Z,26.62
2018-02-22T22:11:14.509Z,16.52
2018-02-22T22:13:43.577Z,11.95
2018-02-22T22:16:13.413Z,16.30
2018-02-22T22:18:42.522Z,12.27
2018-02-22T22:21:11.590Z,13.38
2018-02-22T22:23:40.657Z,13.65
2018-02-22T22:26:09.797Z,16.12
2018-02-22T22:28:38.867Z,13.45
2018-02-22T22:31:07.933Z,13.07
2018-02-22T22:33:37.008Z,14.60
2018-02-22T22:36:06.091Z,14.15
2018-02-22T22:38:35.197Z,11.27
2018-02-22T22:41:04.279Z,15.63
2018-02-22T22:43:33.361Z,12.57
2018-02-22T22:46:02.461Z,14.25
2018-02-22T22:48:31.557Z,11.07
2018-02-22T22:51:00.685Z,11.52
2018-02-22T22:53:29.769Z,9.52
2018-02-22T22:55:58.846Z,8.35
2018-02-22T22:58:27.914Z,9.85
2018-02-22T23:00:57.049Z,8.10
2018-02-22T23:03:26.127Z,8.55
2018-02-22T23:05:55.213Z,9.00
2018-02-22T23:08:24.306Z,8.80
2018-02-22T23:10:54.145Z,8.88
2018-02-22T23:13:23.217Z,9.15
2018-02-22T23:15:52.301Z,8.40
2018-02-22T23:18:21.410Z,9.73
2018-02-22T23:20:50.505Z,8.07
2018-02-22T23:23:19.570Z,8.65
2018-02-22T23:25:48.823Z,8.75
2018-02-22T23:28:17.962Z,9.20
2018-02-22T23:30:47.069Z,9.25
2018-02-22T23:33:16.153Z,10.35
2018-02-22T23:35:45.291Z,9.57
2018-02-22T23:38:14.437Z,9.95
2018-02-22T23:40:43.509Z,9.35
2018-02-22T23:43:12.606Z,11.15
2018-02-22T23:45:41.690Z,11.18
2018-02-22T23:48:10.767Z,10.60
2018-02-22T23:50:39.855Z,9.27
2018-02-22T23:53:08.933Z,11.05
2018-02-22T23:55:38.050Z,9.95
2018-02-22T23:58:07.162Z,11.63
